Chico Municipal Airport

Airport
ICAO code: 
KCIC
IATA Code: 
CIC
Summary
ICAO Region: 
NAM
Territory: 
Location: 
Chico, California
Serving: 
Butte County
Elevation: 
240 ft
Coordinates: 
Aerial View: 
39° 47' 56.733" N, 121° 51' 16.824" W
Metar
Observation
KCIC 021555Z 00000KT 25SM CLR 06/04 A3014
Station
Chico Municipal
Date/Time
2021-12-02 15:55:00
Wind direction
Wind speed
00 kts
Lowest cloud amount
n/a
Temperature
6°C
Dew point
4°C
Humidity
86%
Weather condition
n/a

Description

Chico Municipal Airport is a public airport located 6 km north of the central business district of Chico, a city in Butte County, California.

Climatology

Dry-summer subtropical ”Mediterranean" climate (Köppen climate classification Csb) - characterized by warm, dry summers and mild winters.

Runways

Designator Length Width Surface Rops
13R/31L 916 18 ASP Yes/Yes
13L/31R 2049 46 ASP Yes/Yes
Airport map: 
Aerial View: 

SKYbrary Partners:

Safety knowledge contributed by: